Grove City (29D)
Grove City, PA
Field Elevation: 1370
Lat: 41°08.76N  Long: 80°10.07W
CTAF/Unicom Freq: 0.0000
   
     For Weather-by-Phone, call 724 748-3504
Weather Advisories
2018-04-24   15:52 Z
Altimeter 30.14" Hg
Wind 120° @ 10 KT
Gusts 14 KT
Visibility 5 SM
Temperature 10° C (50° F)
Dewpoint 8° C (46° F)
Relative Humidity 86%
Density Altitude --
Condensation Altitude 2,500 feet
Wind Chill: 8° C (46° F)
Wind and Runways
Indicated Runway = 10
Headwind = 9 kt
Crosswind = 3 kt
History
 
 
 
More Info
All DigiWx sites map
NOAA Forecast
 
Airport IQ 5010
(LHV) Lock Haven
(74PN) Altoona Regional
 
about DigiWx
 
FAA Disclaimer: The data displayed is for advisory purposes only and is not to be used for flight planning or operations. For official data, please call 724 748-3504 to hear the current automated AWOS voice message.
  METAR 29D 241552Z AUTO 12010G14KT 5 SM 10/08 A3014